createdAt,value
2018-06-04T00:00:30.359Z,98207.56
2018-06-04T00:03:00.327Z,98209.46
2018-06-04T00:05:29.272Z,98207.45
2018-06-04T00:07:58.447Z,98219.03
2018-06-04T00:10:27.387Z,98212.50
2018-06-04T00:12:56.351Z,98214.17
2018-06-04T00:15:25.412Z,98205.20
2018-06-04T00:17:54.333Z,98202.23
2018-06-04T00:20:23.836Z,98200.22
2018-06-04T00:22:52.840Z,98204.37
2018-06-04T00:25:22.448Z,98212.88
2018-06-04T00:27:51.373Z,98205.50
2018-06-04T00:30:21.319Z,98200.56
2018-06-04T00:32:50.363Z,98195.09
2018-06-04T00:35:19.276Z,98197.00
2018-06-04T00:37:48.324Z,98194.22
2018-06-04T00:40:17.332Z,98192.85
2018-06-04T00:42:46.386Z,98196.66
2018-06-04T00:45:15.584Z,98187.50
2018-06-04T00:47:45.293Z,98191.38
2018-06-04T00:50:14.330Z,98189.70
2018-06-04T00:52:43.360Z,98180.05
2018-06-04T00:55:12.344Z,98180.58
2018-06-04T00:57:41.300Z,98170.05
2018-06-04T01:00:10.988Z,98174.23
2018-06-04T01:02:39.995Z,98160.50
2018-06-04T01:05:08.951Z,98167.70
2018-06-04T01:07:38.047Z,98169.66
2018-06-04T01:10:07.118Z,98163.50
2018-06-04T01:12:36.077Z,98157.25
2018-06-04T01:15:05.241Z,98155.79
2018-06-04T01:17:34.182Z,98155.44
2018-06-04T01:20:03.116Z,98146.10
2018-06-04T01:22:32.228Z,98143.06
2018-06-04T01:25:01.217Z,98143.24
2018-06-04T01:27:30.296Z,98141.95
2018-06-04T01:29:59.420Z,98136.77
2018-06-04T01:32:28.369Z,98125.63
2018-06-04T01:34:57.406Z,98127.47
2018-06-04T01:37:26.448Z,98123.95
2018-06-04T01:39:55.450Z,98136.36
2018-06-04T01:42:25.411Z,98127.73
2018-06-04T01:44:54.391Z,98123.77
2018-06-04T01:47:23.329Z,98117.60
2018-06-04T01:49:52.265Z,98118.74
2018-06-04T01:52:21.383Z,98114.92
2018-06-04T01:54:50.820Z,98113.33
2018-06-04T01:57:20.514Z,98104.34
2018-06-04T01:59:49.809Z,98106.06
2018-06-04T02:02:18.746Z,98109.77
2018-06-04T02:04:48.786Z,98106.38
2018-06-04T02:07:18.212Z,98101.63
2018-06-04T02:09:47.134Z,98104.61
2018-06-04T02:12:17.194Z,98110.77
2018-06-04T02:14:46.648Z,98106.52
2018-06-04T02:17:15.661Z,98105.20
2018-06-04T02:19:45.328Z,98111.58
2018-06-04T02:22:15.136Z,98114.39
2018-06-04T02:24:44.539Z,98112.09
2018-06-04T02:27:14.088Z,98113.90
2018-06-04T02:29:43.113Z,98107.55
2018-06-04T02:32:13.010Z,98108.17
2018-06-04T02:34:42.673Z,98108.22
2018-06-04T02:37:12.229Z,98105.27
2018-06-04T02:39:41.263Z,98106.62
2018-06-04T02:42:10.408Z,98107.52
2018-06-04T02:44:39.365Z,98111.44
2018-06-04T02:47:08.322Z,98098.98
2018-06-04T02:49:37.384Z,98106.16
2018-06-04T02:52:06.446Z,98104.58
2018-06-04T02:54:36.125Z,98104.84
2018-06-04T02:57:05.305Z,98104.13
2018-06-04T02:59:34.592Z,98100.61
2018-06-04T03:02:03.561Z,98105.23
2018-06-04T03:04:33.185Z,98106.86
2018-06-04T03:07:02.729Z,98111.27
2018-06-04T03:09:31.689Z,98113.86
2018-06-04T03:12:00.721Z,98108.75
2018-06-04T03:14:31.529Z,98113.55
2018-06-04T03:17:00.567Z,98116.78
2018-06-04T03:19:29.582Z,98126.28
2018-06-04T03:21:58.790Z,98128.31
2018-06-04T03:24:27.836Z,98127.97
2018-06-04T03:26:56.814Z,98122.56
2018-06-04T03:29:26.534Z,98121.51
2018-06-04T03:31:57.056Z,98124.59
2018-06-04T03:34:26.071Z,98128.16
2018-06-04T03:36:55.023Z,98131.83
2018-06-04T03:39:24.115Z,98132.27
2018-06-04T03:41:53.114Z,98134.88
2018-06-04T03:44:22.149Z,98127.99
2018-06-04T03:46:51.207Z,98129.54
2018-06-04T03:49:20.179Z,98130.11
2018-06-04T03:51:49.248Z,98128.34
2018-06-04T03:54:18.376Z,98136.23
2018-06-04T03:56:47.417Z,98127.10
2018-06-04T03:59:16.391Z,98131.42
2018-06-04T04:01:45.488Z,98134.92
2018-06-04T04:04:14.490Z,98135.09
2018-06-04T04:06:43.421Z,98139.39
2018-06-04T04:09:12.688Z,98140.81
2018-06-04T04:11:41.768Z,98138.08
2018-06-04T04:14:10.769Z,98138.03
2018-06-04T04:16:40.504Z,98141.86
2018-06-04T04:19:09.420Z,98143.22
2018-06-04T04:21:38.335Z,98142.09
2018-06-04T04:24:07.300Z,98137.89
2018-06-04T04:26:40.252Z,98150.07
2018-06-04T04:29:09.814Z,98150.33
2018-06-04T04:31:39.227Z,98148.64
2018-06-04T04:34:08.222Z,98156.77
2018-06-04T04:36:37.228Z,98150.57
2018-06-04T04:39:08.989Z,98150.71
2018-06-04T04:41:38.328Z,98147.81
2018-06-04T04:44:07.599Z,98144.11
2018-06-04T04:46:36.574Z,98147.55
2018-06-04T04:49:05.742Z,98136.69
2018-06-04T04:51:34.705Z,98137.89
2018-06-04T04:54:03.715Z,98140.02
2018-06-04T04:56:32.721Z,98138.34
2018-06-04T04:59:01.713Z,98135.22
2018-06-04T05:01:30.651Z,98140.66
2018-06-04T05:04:00.504Z,98134.73
2018-06-04T05:06:29.500Z,98138.27
2018-06-04T05:08:59.407Z,98142.94
2018-06-04T05:11:28.541Z,98138.22
2018-06-04T05:13:57.700Z,98137.03
2018-06-04T05:16:28.397Z,98144.93
2018-06-04T05:18:57.587Z,98142.53
2018-06-04T05:21:27.038Z,98148.64
2018-06-04T05:23:55.954Z,98146.22
2018-06-04T05:26:25.377Z,98141.05
2018-06-04T05:28:54.429Z,98142.77
2018-06-04T05:31:23.425Z,98143.88
2018-06-04T05:33:53.077Z,98142.78
2018-06-04T05:36:22.083Z,98148.32
2018-06-04T05:38:51.083Z,98154.13
2018-06-04T05:41:20.385Z,98148.58
2018-06-04T05:43:49.376Z,98146.37
2018-06-04T05:46:18.287Z,98148.58
2018-06-04T05:48:48.134Z,98142.25
2018-06-04T05:51:17.120Z,98146.07
2018-06-04T05:53:46.059Z,98148.25
2018-06-04T05:56:15.138Z,98146.78
2018-06-04T05:58:44.290Z,98149.49
2018-06-04T06:01:13.227Z,98148.17
2018-06-04T06:03:42.426Z,98158.39
2018-06-04T06:06:11.437Z,98154.34
2018-06-04T06:08:40.568Z,98151.88
2018-06-04T06:11:09.557Z,98161.25
2018-06-04T06:13:38.523Z,98156.28
2018-06-04T06:16:07.565Z,98156.55
2018-06-04T06:18:37.368Z,98155.74
2018-06-04T06:21:06.489Z,98152.44
2018-06-04T06:23:36.255Z,98149.14
2018-06-04T06:26:05.588Z,98148.03
2018-06-04T06:28:35.398Z,98152.44
2018-06-04T06:31:04.335Z,98152.94
2018-06-04T06:33:33.368Z,98159.50
2018-06-04T06:36:02.304Z,98157.19
2018-06-04T06:38:31.355Z,98154.03
2018-06-04T06:41:00.424Z,98151.63
2018-06-04T06:43:29.374Z,98146.70
2018-06-04T06:45:59.104Z,98146.80
2018-06-04T06:48:28.422Z,98140.62
2018-06-04T06:50:57.374Z,98134.77
2018-06-04T06:53:27.077Z,98133.09
2018-06-04T06:55:56.887Z,98127.89
2018-06-04T06:58:26.751Z,98128.22
2018-06-04T07:00:55.731Z,98124.84
2018-06-04T07:03:25.220Z,98122.19
2018-06-04T07:05:54.241Z,98132.33
2018-06-04T07:08:23.294Z,98121.54
2018-06-04T07:10:52.352Z,98121.56
2018-06-04T07:13:21.247Z,98119.00
2018-06-04T07:15:50.192Z,98118.53
2018-06-04T07:18:19.206Z,98124.63
2018-06-04T07:20:49.015Z,98120.32
2018-06-04T07:23:18.052Z,98118.87
2018-06-04T07:25:47.636Z,98123.83
2018-06-04T07:28:16.601Z,98122.47
2018-06-04T07:30:45.913Z,98131.89
2018-06-04T07:33:14.994Z,98128.06
2018-06-04T07:35:43.933Z,98118.86
2018-06-04T07:38:12.835Z,98122.22
2018-06-04T07:40:43.103Z,98115.20
2018-06-04T07:43:12.061Z,98119.66
2018-06-04T07:45:40.972Z,98112.13
2018-06-04T07:48:10.035Z,98117.25
2018-06-04T07:50:38.896Z,98116.42
2018-06-04T07:53:07.764Z,98111.35
2018-06-04T07:55:36.749Z,98111.00
2018-06-04T07:58:05.685Z,98110.00
2018-06-04T08:00:35.396Z,98114.03
2018-06-04T08:03:04.564Z,98111.05
2018-06-04T08:05:34.142Z,98111.67
2018-06-04T08:08:03.068Z,98114.05
2018-06-04T08:10:33.054Z,98108.61
2018-06-04T08:13:02.051Z,98105.08
2018-06-04T08:15:31.009Z,98112.83
2018-06-04T08:18:00.122Z,98109.93
2018-06-04T08:20:29.044Z,98107.29
2018-06-04T08:22:57.971Z,98104.31
2018-06-04T08:25:27.153Z,98104.95
2018-06-04T08:27:56.072Z,98104.24
2018-06-04T08:30:25.088Z,98099.95
2018-06-04T08:32:54.169Z,98100.06
2018-06-04T08:35:23.100Z,98102.59
2018-06-04T08:37:52.173Z,98091.44
2018-06-04T08:40:21.247Z,98094.89
2018-06-04T08:42:50.203Z,98088.30
2018-06-04T08:45:19.147Z,98087.73
2018-06-04T08:47:48.193Z,98086.80
2018-06-04T08:50:17.149Z,98088.61
2018-06-04T08:52:46.473Z,98080.44
2018-06-04T08:55:16.735Z,98076.14
2018-06-04T08:57:45.716Z,98068.78
2018-06-04T09:00:14.760Z,98061.34
2018-06-04T09:02:44.476Z,98050.37
2018-06-04T09:05:13.386Z,98047.75
2018-06-04T09:07:43.059Z,98044.67
2018-06-04T09:10:12.131Z,98047.66
2018-06-04T09:12:41.082Z,98045.66
2018-06-04T09:15:10.067Z,98041.08
2018-06-04T09:17:40.295Z,98030.66
2018-06-04T09:20:09.315Z,98041.89
2018-06-04T09:22:38.298Z,98037.68
2018-06-04T09:25:07.301Z,98029.28
2018-06-04T09:27:36.391Z,98032.39
2018-06-04T09:30:06.590Z,98027.16
2018-06-04T09:32:35.565Z,98029.54
2018-06-04T09:35:04.563Z,98031.39
2018-06-04T09:37:33.738Z,98027.45
2018-06-04T09:40:02.807Z,98026.70
2018-06-04T09:42:32.340Z,98022.61
2018-06-04T09:45:01.341Z,98018.67
2018-06-04T09:47:30.930Z,98010.30
2018-06-04T09:50:00.521Z,98021.11
2018-06-04T09:52:29.485Z,98017.86
2018-06-04T09:54:58.434Z,98013.11
2018-06-04T09:57:27.598Z,98001.11
2018-06-04T09:59:56.612Z,98009.78
2018-06-04T10:02:25.646Z,98004.52
2018-06-04T10:04:54.641Z,98008.58
2018-06-04T10:07:23.597Z,98001.02
2018-06-04T10:09:52.514Z,97994.94
2018-06-04T10:12:22.086Z,97996.44
2018-06-04T10:14:51.078Z,97989.87
2018-06-04T10:17:20.093Z,97995.05
2018-06-04T10:19:49.111Z,97991.47
2018-06-04T10:22:18.137Z,97991.15
2018-06-04T10:24:47.119Z,97987.59
2018-06-04T10:27:16.203Z,97982.76
2018-06-04T10:29:45.254Z,97988.36
2018-06-04T10:32:14.331Z,97979.56
2018-06-04T10:34:54.112Z,97974.64
2018-06-04T10:37:23.726Z,97977.09
2018-06-04T10:39:54.644Z,97974.45
2018-06-04T10:42:24.962Z,97967.13
2018-06-04T10:44:53.982Z,97963.98
2018-06-04T10:47:23.480Z,97955.56
2018-06-04T10:49:55.633Z,97948.42
2018-06-04T10:52:30.463Z,97942.52
2018-06-04T10:54:59.486Z,97942.02
2018-06-04T10:57:28.474Z,97928.18
2018-06-04T11:00:08.452Z,97939.25
2018-06-04T11:02:37.881Z,97936.28
2018-06-04T11:05:06.868Z,97935.39
2018-06-04T11:07:35.879Z,97946.56
2018-06-04T11:10:04.928Z,97935.45
2018-06-04T11:12:34.549Z,97931.61
2018-06-04T11:15:03.735Z,97931.28
2018-06-04T11:17:32.745Z,97925.43
2018-06-04T11:20:02.374Z,97933.42
2018-06-04T11:22:33.197Z,97932.20
2018-06-04T11:25:05.392Z,97934.27
2018-06-04T11:27:37.945Z,97927.89
2018-06-04T11:30:07.182Z,97931.91
2018-06-04T11:32:36.973Z,97924.34
2018-06-04T11:35:05.997Z,97924.60
2018-06-04T11:37:35.006Z,97911.75
2018-06-04T11:40:04.255Z,97907.95
2018-06-04T11:42:33.193Z,97902.60
2018-06-04T11:45:02.155Z,97901.03
2018-06-04T11:47:31.296Z,97901.88
2018-06-04T11:50:00.219Z,97899.36
2018-06-04T11:52:29.233Z,97898.70
2018-06-04T11:54:58.280Z,97901.77
2018-06-04T11:57:27.289Z,97897.27
2018-06-04T11:59:56.278Z,97889.73
2018-06-04T12:02:25.311Z,97888.28
2018-06-04T12:04:54.303Z,97888.01
2018-06-04T12:07:23.703Z,97879.36
2018-06-04T12:09:52.678Z,97888.47
2018-06-04T12:12:21.663Z,97892.99
2018-06-04T12:14:50.693Z,97890.13
2018-06-04T12:17:19.675Z,97888.29
2018-06-04T12:19:49.435Z,97890.89
2018-06-04T12:22:18.403Z,97900.14
2018-06-04T12:24:47.426Z,97898.81
2018-06-04T12:27:16.397Z,97899.11
2018-06-04T12:29:45.952Z,97885.19
2018-06-04T12:32:15.129Z,97881.23
2018-06-04T12:34:44.636Z,97880.30
2018-06-04T12:37:13.591Z,97876.00
2018-06-04T12:39:42.725Z,97880.38
2018-06-04T12:42:11.760Z,97886.25
2018-06-04T12:44:41.541Z,97872.31
2018-06-04T12:47:10.548Z,97858.79
2018-06-04T12:49:42.776Z,97862.84
2018-06-04T12:52:12.932Z,97856.28
2018-06-04T12:54:41.945Z,97859.71
2018-06-04T12:57:11.005Z,97846.45
2018-06-04T12:59:41.065Z,97847.34
2018-06-04T13:02:10.833Z,97844.37
2018-06-04T13:04:39.877Z,97833.96
2018-06-04T13:07:08.941Z,97827.11
2018-06-04T13:09:38.050Z,97824.61
2018-06-04T13:12:07.049Z,97823.11
2018-06-04T13:14:36.098Z,97819.05
2018-06-04T13:17:05.180Z,97829.00
2018-06-04T13:19:34.217Z,97824.02
2018-06-04T13:22:03.309Z,97818.98
2018-06-04T13:24:32.288Z,97817.93
2018-06-04T13:27:01.247Z,97809.71
2018-06-04T13:29:30.518Z,97808.50
2018-06-04T13:31:59.527Z,97804.27
2018-06-04T13:34:28.662Z,97808.85
2018-06-04T13:36:57.884Z,97816.02
2018-06-04T13:39:27.014Z,97823.09
2018-06-04T13:41:56.072Z,97827.39
2018-06-04T13:44:25.182Z,97820.05
2018-06-04T13:46:54.219Z,97818.17
2018-06-04T13:49:24.271Z,97827.47
2018-06-04T13:51:53.308Z,97835.39
2018-06-04T13:54:22.327Z,97842.31
2018-06-04T13:56:51.257Z,97856.72
2018-06-04T13:59:20.461Z,97846.78
2018-06-04T14:01:49.490Z,97848.67
2018-06-04T14:04:18.531Z,97836.66
2018-06-04T14:06:47.567Z,97814.59
2018-06-04T14:09:16.732Z,97804.49
2018-06-04T14:11:45.631Z,97787.89
2018-06-04T14:14:14.710Z,97789.36
2018-06-04T14:16:43.684Z,97781.94
2018-06-04T14:19:12.696Z,97781.41
2018-06-04T14:21:41.875Z,97782.24
2018-06-04T14:24:10.857Z,97778.54
2018-06-04T14:26:39.813Z,97779.51
2018-06-04T14:29:08.900Z,97780.23
2018-06-04T14:31:37.896Z,97788.20
2018-06-04T14:34:06.857Z,97791.71
2018-06-04T14:36:36.064Z,97793.57
2018-06-04T14:39:08.465Z,97793.25
2018-06-04T14:41:38.796Z,97797.79
2018-06-04T14:44:08.747Z,97796.28
2018-06-04T14:46:37.690Z,97799.27
2018-06-04T14:49:06.795Z,97799.73
2018-06-04T14:51:35.818Z,97796.03
2018-06-04T14:54:04.849Z,97791.28
2018-06-04T14:56:33.962Z,97793.67
2018-06-04T14:59:02.986Z,97792.74
2018-06-04T15:01:32.039Z,97802.00
2018-06-04T15:04:01.128Z,97795.31
2018-06-04T15:06:30.286Z,97791.98
2018-06-04T15:09:00.006Z,97783.34
2018-06-04T15:11:29.072Z,97776.67
2018-06-04T15:13:58.097Z,97768.91
2018-06-04T15:16:27.103Z,97763.88
2018-06-04T15:18:56.337Z,97759.95
2018-06-04T15:21:25.281Z,97756.91
2018-06-04T15:23:54.383Z,97765.75
2018-06-04T15:26:23.461Z,97768.53
2018-06-04T15:28:52.395Z,97758.63
2018-06-04T15:31:22.107Z,97762.00
2018-06-04T15:33:51.238Z,97763.09
2018-06-04T15:36:20.260Z,97762.27
2018-06-04T15:38:49.346Z,97766.48
2018-06-04T15:41:18.532Z,97766.27
2018-06-04T15:43:47.641Z,97760.19
2018-06-04T15:46:16.685Z,97758.85
2018-06-04T15:48:47.503Z,97761.62
2018-06-04T15:51:17.823Z,97760.19
2018-06-04T15:53:46.789Z,97749.45
2018-06-04T15:56:15.859Z,97741.14
2018-06-04T15:58:44.834Z,97729.26
2018-06-04T16:01:14.728Z,97728.70
2018-06-04T16:03:43.766Z,97726.17
2018-06-04T16:06:13.827Z,97723.41
2018-06-04T16:08:42.827Z,97719.58
2018-06-04T16:11:11.920Z,97717.38
2018-06-04T16:13:40.909Z,97722.63
2018-06-04T16:16:09.905Z,97717.70
2018-06-04T16:18:39.512Z,97718.31
2018-06-04T16:21:08.699Z,97724.17
2018-06-04T16:23:39.120Z,97743.53
2018-06-04T16:26:08.236Z,97741.88
2018-06-04T16:28:37.428Z,97759.58
2018-06-04T16:31:06.431Z,97755.20
2018-06-04T16:33:35.496Z,97768.20
2018-06-04T16:36:04.577Z,97779.25
2018-06-04T16:38:33.579Z,97788.92
2018-06-04T16:41:02.689Z,97795.93
2018-06-04T16:43:31.764Z,97799.80
2018-06-04T16:46:00.799Z,97797.87
2018-06-04T16:48:29.851Z,97800.91
2018-06-04T16:50:58.863Z,97803.68
2018-06-04T16:53:28.054Z,97796.50
2018-06-04T16:55:57.766Z,97800.64
2018-06-04T16:58:27.594Z,97799.86
2018-06-04T17:00:56.577Z,97792.22
2018-06-04T17:03:25.586Z,97806.05
2018-06-04T17:05:54.642Z,97815.53
2018-06-04T17:08:23.732Z,97817.09
2018-06-04T17:10:52.687Z,97822.73
2018-06-04T17:13:21.743Z,97821.46
2018-06-04T17:15:50.828Z,97816.29
2018-06-04T17:18:20.487Z,97808.11
2018-06-04T17:20:50.450Z,97811.53
2018-06-04T17:23:19.681Z,97812.20
2018-06-04T17:25:48.984Z,97809.86
2018-06-04T17:28:18.025Z,97807.19
2018-06-04T17:30:47.009Z,97804.80
2018-06-04T17:33:15.947Z,97804.31
2018-06-04T17:35:45.920Z,97806.55
2018-06-04T17:38:14.896Z,97810.47
2018-06-04T17:40:43.845Z,97806.91
2018-06-04T17:43:13.047Z,97807.73
2018-06-04T17:45:41.975Z,97802.23
2018-06-04T17:48:10.994Z,97793.45
2018-06-04T17:50:40.077Z,97803.94
2018-06-04T17:53:09.690Z,97801.47
2018-06-04T17:55:38.741Z,97812.50
2018-06-04T17:58:07.861Z,97810.84
2018-06-04T18:00:36.910Z,97812.79
2018-06-04T18:03:06.539Z,97811.13
2018-06-04T18:05:35.609Z,97818.29
2018-06-04T18:08:04.599Z,97823.52
2018-06-04T18:10:33.618Z,97834.23
2018-06-04T18:13:03.429Z,97848.02
2018-06-04T18:15:32.324Z,97868.92
2018-06-04T18:18:01.338Z,97866.99
2018-06-04T18:20:33.041Z,97877.19
2018-06-04T18:23:03.784Z,97893.42
2018-06-04T18:25:35.240Z,97904.42
2018-06-04T18:28:06.739Z,97906.88
2018-06-04T18:30:37.412Z,97916.54
2018-06-04T18:33:07.791Z,97920.38
2018-06-04T18:35:39.043Z,97934.41
2018-06-04T18:38:09.480Z,97935.53
2018-06-04T18:40:40.568Z,97934.98
2018-06-04T18:43:12.227Z,97936.63
2018-06-04T18:45:44.183Z,97944.30
2018-06-04T18:48:13.216Z,97954.52
2018-06-04T18:50:42.185Z,97978.66
2018-06-04T18:53:11.136Z,97981.34
2018-06-04T18:55:40.124Z,97973.61
2018-06-04T18:58:09.077Z,97973.61
2018-06-04T19:00:38.065Z,97974.98
2018-06-04T19:03:07.251Z,97980.97
2018-06-04T19:05:37.008Z,97983.39
2018-06-04T19:08:06.031Z,97991.64
2018-06-04T19:10:35.085Z,97993.85
2018-06-04T19:13:04.218Z,98002.09
2018-06-04T19:15:33.280Z,97997.43
2018-06-04T19:18:02.212Z,98001.27
2018-06-04T19:20:31.182Z,98002.06
2018-06-04T19:23:00.182Z,98002.86
2018-06-04T19:25:29.504Z,98005.53
2018-06-04T19:28:02.125Z,98003.57
2018-06-04T19:30:33.705Z,98004.95
2018-06-04T19:33:02.805Z,97999.73
2018-06-04T19:35:32.693Z,98000.83
2018-06-04T19:38:01.731Z,97996.41
2018-06-04T19:40:30.857Z,97998.58
2018-06-04T19:42:59.867Z,97998.86
2018-06-04T19:45:28.829Z,98004.61
2018-06-04T19:47:58.808Z,98020.30
2018-06-04T19:50:27.813Z,98022.70
2018-06-04T19:52:56.809Z,98012.21
2018-06-04T19:55:25.961Z,98008.87
2018-06-04T19:57:54.931Z,97994.50
2018-06-04T20:00:24.479Z,97994.49
2018-06-04T20:02:53.425Z,97992.73
2018-06-04T20:05:22.391Z,97992.28
2018-06-04T20:07:51.359Z,97976.88
2018-06-04T20:10:20.414Z,97971.32
2018-06-04T20:12:50.026Z,97964.05
2018-06-04T20:15:18.964Z,97961.45
2018-06-04T20:17:47.993Z,97950.34
2018-06-04T20:20:16.973Z,97945.02
2018-06-04T20:22:45.879Z,97941.50
2018-06-04T20:25:15.263Z,97934.31
2018-06-04T20:27:44.221Z,97935.57
2018-06-04T20:30:13.810Z,97937.66
2018-06-04T20:32:42.840Z,97934.85
2018-06-04T20:35:14.875Z,97919.94
2018-06-04T20:37:43.827Z,97932.93
2018-06-04T20:40:12.792Z,97937.47
2018-06-04T20:42:41.726Z,97950.83
2018-06-04T20:45:10.840Z,97953.19
2018-06-04T20:47:40.091Z,97945.38
2018-06-04T20:50:09.101Z,97947.97
2018-06-04T20:52:38.159Z,97952.83
2018-06-04T20:55:07.139Z,97953.36
2018-06-04T20:57:36.109Z,97942.39
2018-06-04T21:00:06.441Z,97938.52
2018-06-04T21:02:35.449Z,97934.69
2018-06-04T21:05:04.383Z,97940.51
2018-06-04T21:07:33.367Z,97950.39
2018-06-04T21:10:03.259Z,97949.84
2018-06-04T21:12:33.162Z,97947.65
2018-06-04T21:15:02.113Z,97946.52
2018-06-04T21:17:31.026Z,97948.19
2018-06-04T21:20:00.126Z,97941.55
2018-06-04T21:22:29.079Z,97947.67
2018-06-04T21:24:58.081Z,97948.09
2018-06-04T21:27:27.690Z,97953.78
2018-06-04T21:29:56.690Z,97951.55
2018-06-04T21:32:25.640Z,97949.86
2018-06-04T21:34:54.602Z,97952.56
2018-06-04T21:37:23.585Z,97944.30
2018-06-04T21:39:52.496Z,97948.46
2018-06-04T21:42:21.473Z,97945.94
2018-06-04T21:44:50.412Z,97938.08
2018-06-04T21:47:19.335Z,97944.09
2018-06-04T21:49:48.292Z,97948.91
2018-06-04T21:52:17.704Z,97954.58
2018-06-04T21:54:46.608Z,97952.70
2018-06-04T21:57:15.762Z,97950.30
2018-06-04T21:59:44.688Z,97949.56
2018-06-04T22:02:14.298Z,97951.02
2018-06-04T22:04:43.276Z,97953.84
2018-06-04T22:07:12.446Z,97945.99
2018-06-04T22:09:41.369Z,97946.29
2018-06-04T22:12:10.311Z,97941.67
2018-06-04T22:14:39.796Z,97940.31
2018-06-04T22:17:08.883Z,97939.48
2018-06-04T22:19:37.838Z,97941.12
2018-06-04T22:22:06.828Z,97940.28
2018-06-04T22:24:35.758Z,97942.72
2018-06-04T22:27:04.822Z,97927.34
2018-06-04T22:29:34.668Z,97929.88
2018-06-04T22:32:03.611Z,97931.03
2018-06-04T22:34:33.643Z,97928.08
2018-06-04T22:37:02.617Z,97926.20
2018-06-04T22:39:31.592Z,97915.77
2018-06-04T22:42:00.732Z,97926.50
2018-06-04T22:44:29.619Z,97922.09
2018-06-04T22:46:58.580Z,97925.43
2018-06-04T22:49:27.561Z,97917.70
2018-06-04T22:51:56.499Z,97903.36
2018-06-04T22:54:25.677Z,97914.61
2018-06-04T22:56:54.671Z,97909.16
2018-06-04T22:59:23.567Z,97901.52
2018-06-04T23:01:52.478Z,97907.31
2018-06-04T23:04:21.428Z,97901.27
2018-06-04T23:06:50.340Z,97902.08
2018-06-04T23:09:19.940Z,97902.64
2018-06-04T23:11:49.927Z,97901.84
2018-06-04T23:14:18.857Z,97890.84
2018-06-04T23:16:48.519Z,97893.20
2018-06-04T23:19:17.571Z,97892.20
2018-06-04T23:21:47.124Z,97886.48
2018-06-04T23:24:16.032Z,97880.71
2018-06-04T23:26:45.259Z,97875.53
2018-06-04T23:29:14.214Z,97875.00
2018-06-04T23:31:43.178Z,97875.37
2018-06-04T23:34:12.815Z,97873.46
2018-06-04T23:36:42.732Z,97871.85
2018-06-04T23:39:11.679Z,97870.80
2018-06-04T23:41:40.727Z,97864.80
2018-06-04T23:44:09.724Z,97867.01
2018-06-04T23:46:38.659Z,97863.75
2018-06-04T23:49:08.728Z,97861.61
2018-06-04T23:51:37.668Z,97857.52
2018-06-04T23:54:07.439Z,97853.19
2018-06-04T23:56:36.593Z,97856.80
2018-06-04T23:59:05.568Z,97848.61
